Time;durP1;ratioP1;P1;durP2;ratioP2;P2;SDS_P1;SDS_P2;PMS_P1;PMS_P2;Temp;Humidity;BMP_temperature;BMP_pressure;BME280_temperature;BME280_humidity;BME280_pressure;Samples;Min_cycle;Max_cycle;Signal;HPM_P1;HPM_P2
2021/04/23 00:05:44;;;;;;;2.30;1.33;;;22.50;48.30;;;;;;5128530;28;20219;-87
2021/04/23 00:08:12;;;;;;;1.90;1.43;;;22.40;48.10;;;;;;5128505;27;20441;-87
2021/04/23 00:10:47;;;;;;;2.27;1.57;;;22.40;48.20;;;;;;5127738;28;20429;-87
2021/04/23 00:13:30;;;;;;;2.10;1.50;;;22.40;48.20;;;;;;5127176;28;20399;-88
2021/04/23 00:15:56;;;;;;;4.20;2.17;;;22.50;48.30;;;;;;5127639;28;20407;-87
2021/04/23 00:18:35;;;;;;;1.53;1.10;;;22.50;48.30;;;;;;5127679;28;20478;-87
2021/04/23 00:21:12;;;;;;;1.37;1.07;;;22.40;48.10;;;;;;5126994;28;20466;-86
2021/04/23 00:23:42;;;;;;;1.87;1.20;;;22.50;48.30;;;;;;5127232;28;20434;-87
2021/04/23 00:26:13;;;;;;;2.30;1.20;;;22.50;48.20;;;;;;5127549;28;20468;-87
2021/04/23 00:28:47;;;;;;;1.80;1.47;;;22.50;48.20;;;;;;5127016;28;20450;-87
2021/04/23 00:31:22;;;;;;;1.67;1.30;;;22.50;48.20;;;;;;5126924;28;20409;-86
2021/04/23 00:33:56;;;;;;;1.40;1.10;;;22.50;48.20;;;;;;5126604;28;20419;-86
2021/04/23 00:36:28;;;;;;;1.73;1.30;;;22.50;48.20;;;;;;5127609;28;20421;-86
2021/04/23 00:39:03;;;;;;;2.73;1.13;;;22.40;48.10;;;;;;5128122;28;20427;-88
2021/04/23 00:41:34;;;;;;;1.60;1.20;;;22.50;48.20;;;;;;5127975;28;20407;-88
2021/04/23 00:44:07;;;;;;;1.80;1.20;;;22.50;48.20;;;;;;5129298;28;20491;-87
2021/04/23 00:46:37;;;;;;;2.33;1.33;;;22.60;48.30;;;;;;5127863;28;20440;-88
2021/04/23 00:49:06;;;;;;;2.03;1.47;;;22.60;48.30;;;;;;5129910;28;20431;-88
2021/04/23 00:51:45;;;;;;;1.93;1.47;;;22.50;48.20;;;;;;5129739;28;20407;-87
2021/04/23 00:54:29;;;;;;;4.10;1.50;;;22.50;48.20;;;;;;5129051;28;20398;-87
2021/04/23 00:57:05;;;;;;;1.53;1.43;;;22.50;48.30;;;;;;5127786;28;20477;-85
2021/04/23 00:59:34;;;;;;;1.77;1.23;;;22.50;48.30;;;;;;5126568;28;20401;-87
2021/04/23 01:02:09;;;;;;;1.90;1.50;;;22.50;48.40;;;;;;5127324;28;20475;-86
2021/04/23 01:04:42;;;;;;;2.80;1.83;;;22.50;48.40;;;;;;5126309;27;20530;-87
2021/04/23 01:07:11;;;;;;;1.67;1.57;;;22.50;48.30;;;;;;5126451;28;20411;-87
2021/04/23 01:09:59;;;;;;;;;;;;;;;;;;;;;
2021/04/23 01:12:28;;;;;;;1.57;1.30;;;22.50;48.40;;;;;;5128246;28;20421;-87
2021/04/23 01:15:05;;;;;;;1.87;1.20;;;22.50;48.40;;;;;;5126606;28;20426;-87
2021/04/23 01:17:48;;;;;;;1.53;1.30;;;22.40;48.30;;;;;;5107202;28;20453;-86
2021/04/23 01:20:22;;;;;;;1.70;1.30;;;22.40;48.40;;;;;;5107770;28;20501;-87
2021/04/23 01:22:55;;;;;;;1.83;1.50;;;22.40;48.40;;;;;;5107282;28;20520;-87
2021/04/23 01:25:27;;;;;;;1.73;1.30;;;22.40;48.40;;;;;;5106353;28;20467;-86
2021/04/23 01:27:56;;;;;;;2.07;1.30;;;22.40;48.50;;;;;;5107486;28;20483;-86
2021/04/23 01:30:52;;;;;;;2.27;1.40;;;22.30;48.40;;;;;;5106524;28;20416;-86
2021/04/23 01:33:30;;;;;;;1.70;1.60;;;22.40;48.40;;;;;;5091104;28;20416;-87
2021/04/23 01:36:07;;;;;;;1.50;1.30;;;22.40;48.50;;;;;;5108391;28;20388;-87
2021/04/23 01:38:40;;;;;;;1.77;1.50;;;22.20;48.30;;;;;;5107045;28;20437;-87
2021/04/23 01:41:13;;;;;;;2.40;1.97;;;22.40;48.50;;;;;;5119736;28;20434;-87
2021/04/23 01:43:47;;;;;;;1.70;1.40;;;22.30;48.40;;;;;;5126868;28;20828;-86
2021/04/23 01:46:32;;;;;;;1.80;1.37;;;22.40;48.50;;;;;;5126026;28;20402;-88
2021/04/23 01:49:23;;;;;;;2.17;1.50;;;22.40;48.50;;;;;;5127824;28;20407;-87
2021/04/23 01:52:07;;;;;;;2.10;1.60;;;22.40;48.50;;;;;;5125890;28;20419;-87
2021/04/23 01:54:50;;;;;;;1.37;1.17;;;22.40;48.50;;;;;;5126035;28;20427;-87
2021/04/23 01:57:26;;;;;;;1.63;1.53;;;22.30;48.40;;;;;;5127611;28;20429;-87
2021/04/23 02:00:26;;;;;;;2.17;1.60;;;22.30;48.50;;;;;;5125166;28;20494;-88
2021/04/23 02:02:59;;;;;;;1.57;1.47;;;22.40;48.50;;;;;;5124182;28;20422;-87
2021/04/23 02:05:34;;;;;;;1.80;1.20;;;22.30;48.50;;;;;;5125495;28;20506;-87
2021/04/23 02:08:08;;;;;;;2.10;1.57;;;22.30;48.40;;;;;;5125696;28;20419;-88
2021/04/23 02:11:02;;;;;;;1.93;1.70;;;22.30;48.50;;;;;;5109381;28;20479;-88
2021/04/23 02:13:36;;;;;;;1.80;1.50;;;22.30;48.40;;;;;;5121029;28;20418;-87
2021/04/23 02:16:12;;;;;;;2.07;1.63;;;22.30;48.40;;;;;;5125922;28;20421;-87
2021/04/23 02:18:44;;;;;;;2.10;1.40;;;22.30;48.40;;;;;;5125740;28;20458;-88
2021/04/23 02:21:22;;;;;;;1.50;1.23;;;22.30;48.50;;;;;;5126265;28;20403;-88
2021/04/23 02:23:52;;;;;;;1.97;1.60;;;22.30;48.50;;;;;;5126231;28;20430;-88
2021/04/23 02:26:28;;;;;;;2.70;1.90;;;22.30;48.50;;;;;;5128942;28;20406;-88
2021/04/23 02:29:02;;;;;;;1.80;1.20;;;22.30;48.50;;;;;;5126917;28;20407;-87
2021/04/23 02:34:51;;;;;;;1.37;1.27;;;22.40;48.50;;;;;;5127946;28;20390;-88
2021/04/23 02:37:20;;;;;;;1.80;1.30;;;22.20;48.50;;;;;;5127070;28;20418;-88
2021/04/23 02:40:01;;;;;;;1.60;1.40;;;22.30;48.40;;;;;;5127629;28;20403;-88
2021/04/23 02:42:30;;;;;;;1.80;1.57;;;22.30;48.50;;;;;;5109666;28;20422;-88
2021/04/23 02:45:01;;;;;;;1.53;1.17;;;22.20;48.40;;;;;;5125131;28;20457;-88
2021/04/23 02:47:33;;;;;;;2.10;1.47;;;22.30;48.40;;;;;;5130679;28;20387;-88
2021/04/23 02:50:00;;;;;;;2.13;1.40;;;22.20;48.40;;;;;;5130158;28;20407;-88
2021/04/23 02:52:31;;;;;;;1.60;1.37;;;22.20;48.40;;;;;;5130962;28;20425;-88
2021/04/23 02:55:02;;;;;;;2.03;1.50;;;22.20;48.30;;;;;;5130932;28;20514;-88
2021/04/23 02:57:40;;;;;;;1.77;1.40;;;22.20;48.30;;;;;;5130427;28;20415;-86
2021/04/23 03:00:24;;;;;;;1.97;1.13;;;22.20;48.40;;;;;;5129568;28;20944;-88
2021/04/23 03:02:53;;;;;;;2.00;1.20;;;22.20;48.30;;;;;;5130089;28;20422;-87
2021/04/23 03:05:21;;;;;;;1.60;1.33;;;22.20;48.30;;;;;;5130410;28;20458;-87
2021/04/23 03:07:53;;;;;;;1.67;1.37;;;22.20;48.30;;;;;;5129592;28;20932;-87
2021/04/23 03:10:43;;;;;;;;;;;;;;;;;;;;;
2021/04/23 03:16:05;;;;;;;3.70;1.60;;;22.20;48.30;;;;;;5130851;28;20399;-88
2021/04/23 03:18:44;;;;;;;1.30;1.20;;;22.20;48.40;;;;;;5130783;28;20410;-87
2021/04/23 03:24:10;;;;;;;1.90;1.63;;;22.20;48.30;;;;;;5131323;28;20450;-88
2021/04/23 03:26:39;;;;;;;1.50;1.40;;;22.20;48.30;;;;;;5130649;28;20438;-88
2021/04/23 03:29:16;;;;;;;1.90;1.30;;;22.20;48.30;;;;;;5130257;28;20413;-85
2021/04/23 03:31:51;;;;;;;2.10;1.53;;;22.20;48.30;;;;;;5131633;28;20406;-85
2021/04/23 03:34:29;;;;;;;1.50;1.33;;;22.20;48.30;;;;;;5130862;28;20422;-86
2021/04/23 03:36:58;;;;;;;2.50;1.37;;;22.20;48.30;;;;;;5129514;28;20498;-84
2021/04/23 03:39:35;;;;;;;2.90;1.10;;;22.20;48.30;;;;;;5131105;27;20414;-85
2021/04/23 03:42:01;;;;;;;2.97;1.53;;;22.20;48.20;;;;;;5132204;28;20400;-85
2021/04/23 03:44:38;;;;;;;2.27;1.47;;;22.20;48.30;;;;;;5129846;28;20468;-86
2021/04/23 03:47:13;;;;;;;1.87;1.30;;;22.20;48.20;;;;;;5131150;28;20411;-85
2021/04/23 03:50:03;;;;;;;2.70;1.50;;;22.20;48.20;;;;;;5131214;28;20386;-85
2021/04/23 03:52:38;;;;;;;1.20;1.10;;;22.20;48.20;;;;;;5129133;28;20552;-85
2021/04/23 03:55:15;;;;;;;1.83;1.70;;;22.20;48.20;;;;;;5129512;28;20478;-85
2021/04/23 03:58:00;;;;;;;2.43;1.60;;;22.20;48.20;;;;;;5129275;28;20432;-85
2021/04/23 04:01:06;;;;;;;1.80;1.20;;;22.20;48.20;;;;;;5129721;28;20422;-85
2021/04/23 04:03:48;;;;;;;2.17;1.83;;;22.20;48.10;;;;;;5118230;28;20418;-85
2021/04/23 04:06:36;;;;;;;1.63;1.50;;;22.20;48.20;;;;;;5129893;28;20418;-85
2021/04/23 04:09:18;;;;;;;1.90;1.60;;;22.10;48.10;;;;;;5131534;28;20379;-85
2021/04/23 04:11:44;;;;;;;1.50;1.00;;;22.20;48.10;;;;;;5131478;28;20383;-85
2021/04/23 04:14:10;;;;;;;2.20;1.50;;;22.10;48.10;;;;;;5129922;28;20438;-85
2021/04/23 04:16:41;;;;;;;1.87;1.57;;;22.10;48.10;;;;;;5129771;28;20407;-85
2021/04/23 04:19:12;;;;;;;1.50;1.40;;;22.10;48.10;;;;;;5131368;28;20400;-84
2021/04/23 04:21:39;;;;;;;1.50;1.30;;;22.10;48.10;;;;;;5129717;28;20419;-84
2021/04/23 04:24:11;;;;;;;1.53;1.30;;;22.10;48.10;;;;;;5129833;28;20498;-85
2021/04/23 04:26:41;;;;;;;1.67;1.27;;;22.10;48.00;;;;;;5116543;28;20440;-85
2021/04/23 04:29:17;;;;;;;1.90;1.13;;;22.20;48.10;;;;;;5111209;28;20510;-85
2021/04/23 04:31:54;;;;;;;2.03;1.60;;;22.10;48.10;;;;;;5110761;28;20403;-85
2021/04/23 04:34:55;;;;;;;2.03;1.50;;;22.20;48.10;;;;;;5110663;28;20396;-85
2021/04/23 04:37:46;;;;;;;2.07;1.77;;;22.20;48.20;;;;;;5110979;28;20404;-85
2021/04/23 04:40:23;;;;;;;1.70;1.53;;;22.10;48.00;;;;;;5109584;28;20415;-85
2021/04/23 04:43:06;;;;;;;1.43;1.33;;;22.10;48.00;;;;;;5109130;28;20431;-85
2021/04/23 04:46:10;;;;;;;1.30;1.10;;;22.20;48.20;;;;;;5109305;28;20452;-85
2021/04/23 04:48:56;;;;;;;2.03;1.47;;;22.20;48.10;;;;;;5106876;28;20407;-86
2021/04/23 04:52:09;;;;;;;2.53;1.50;;;22.10;48.00;;;;;;5107446;28;20412;-85
2021/04/23 04:54:52;;;;;;;1.80;1.43;;;22.20;48.10;;;;;;5105604;28;20426;-85
2021/04/23 04:57:37;;;;;;;2.13;1.50;;;22.20;48.20;;;;;;5109387;28;20388;-88
2021/04/23 05:00:25;;;;;;;1.80;1.30;;;22.20;48.10;;;;;;5107330;28;20427;-85
2021/04/23 05:02:56;;;;;;;2.67;1.50;;;22.20;48.10;;;;;;5107351;28;20787;-84
2021/04/23 05:05:24;;;;;;;1.73;1.20;;;22.20;48.20;;;;;;5107133;28;20807;-85
2021/04/23 05:07:54;;;;;;;1.90;1.40;;;22.20;48.10;;;;;;5107031;28;20443;-84
2021/04/23 05:10:21;;;;;;;2.20;1.33;;;22.30;48.20;;;;;;5108160;28;20399;-85
2021/04/23 05:13:22;;;;;;;1.70;1.30;;;22.20;48.10;;;;;;5107516;28;20412;-86
2021/04/23 05:15:54;;;;;;;1.73;0.90;;;22.30;48.10;;;;;;5094313;28;20423;-85
2021/04/23 05:18:21;;;;;;;2.63;1.30;;;22.30;48.10;;;;;;5108059;28;20442;-85
2021/04/23 05:20:47;;;;;;;1.53;1.10;;;22.30;48.20;;;;;;5107465;28;20947;-86
2021/04/23 05:23:23;;;;;;;1.40;1.10;;;22.30;48.30;;;;;;5107472;28;20412;-85
2021/04/23 05:25:49;;;;;;;2.00;1.40;;;22.30;48.10;;;;;;5109036;28;20432;-85
2021/04/23 05:28:24;;;;;;;1.63;1.20;;;22.30;48.40;;;;;;5107701;28;20424;-86
2021/04/23 05:30:50;;;;;;;1.57;1.47;;;22.50;48.40;;;;;;5104297;28;20400;-84
2021/04/23 05:33:19;;;;;;;1.50;1.30;;;22.40;48.20;;;;;;5103763;28;20416;-85
2021/04/23 05:35:54;;;;;;;1.60;1.07;;;22.40;48.30;;;;;;5103700;28;20408;-85
2021/04/23 05:38:21;;;;;;;1.70;1.30;;;22.40;48.30;;;;;;5105729;28;20423;-83
2021/04/23 05:40:59;;;;;;;2.33;1.90;;;22.40;48.50;;;;;;5105985;28;20427;-84
2021/04/23 05:43:28;;;;;;;2.07;1.50;;;22.20;48.10;;;;;;5103937;28;20414;-84
2021/04/23 05:48:54;;;;;;;1.60;1.40;;;22.40;48.30;;;;;;5105008;28;20415;-84
2021/04/23 05:51:23;;;;;;;2.07;1.40;;;22.40;48.20;;;;;;5105023;28;20392;-85
2021/04/23 05:54:00;;;;;;;1.80;1.40;;;22.80;48.50;;;;;;5105282;28;20403;-84
2021/04/23 05:56:28;;;;;;;2.33;1.47;;;22.40;48.20;;;;;;5105654;28;20597;-85
2021/04/23 05:58:54;;;;;;;1.57;1.40;;;22.40;48.30;;;;;;5105363;28;20423;-85
2021/04/23 06:01:26;;;;;;;1.97;1.70;;;22.20;48.10;;;;;;5105835;28;20609;-86
2021/04/23 06:03:51;;;;;;;2.13;1.30;;;22.40;48.10;;;;;;5104555;28;20404;-86
2021/04/23 06:06:17;;;;;;;2.37;1.40;;;22.50;48.60;;;;;;5105169;28;20435;-85
2021/04/23 06:08:44;;;;;;;2.57;1.63;;;22.40;48.50;;;;;;5105723;28;20411;-85
2021/04/23 06:11:18;;;;;;;1.37;1.20;;;22.40;48.20;;;;;;5104024;28;20480;-86
2021/04/23 06:13:59;;;;;;;1.57;1.33;;;22.50;48.30;;;;;;5105365;28;20896;-86
2021/04/23 06:16:33;;;;;;;2.17;1.50;;;22.40;48.10;;;;;;5105168;28;20403;-85
2021/04/23 06:18:59;;;;;;;4.03;1.60;;;22.40;48.20;;;;;;5104420;28;20419;-86
2021/04/23 06:21:33;;;;;;;1.87;1.67;;;22.40;48.40;;;;;;5105130;28;20536;-86
2021/04/23 06:24:00;;;;;;;1.60;1.33;;;22.40;48.10;;;;;;5104273;28;20471;-86
2021/04/23 06:26:26;;;;;;;1.63;1.27;;;22.40;48.10;;;;;;5105602;28;20420;-85
2021/04/23 06:28:57;;;;;;;1.50;1.20;;;22.40;48.10;;;;;;5107780;28;20780;-85
2021/04/23 06:31:29;;;;;;;2.70;1.30;;;22.40;48.10;;;;;;5104136;28;20419;-84
2021/04/23 06:33:57;;;;;;;1.30;1.20;;;22.40;48.10;;;;;;5103870;28;20420;-85
2021/04/23 06:36:24;;;;;;;1.60;1.10;;;22.40;48.20;;;;;;5105654;28;20457;-84
2021/04/23 06:38:55;;;;;;;1.90;1.43;;;22.40;48.60;;;;;;5104508;28;20419;-86
2021/04/23 06:41:21;;;;;;;1.30;1.10;;;22.50;48.20;;;;;;5104754;28;20412;-86
2021/04/23 06:43:49;;;;;;;1.57;1.10;;;22.40;48.20;;;;;;5119617;28;20423;-86
2021/04/23 06:46:15;;;;;;;2.37;1.30;;;22.50;48.30;;;;;;5124717;28;20406;-86
2021/04/23 06:48:46;;;;;;;1.23;1.10;;;22.40;48.40;;;;;;5123420;28;20415;-86
2021/04/23 06:51:13;;;;;;;1.50;1.37;;;22.50;48.20;;;;;;5124480;28;20200;-86
2021/04/23 06:53:42;;;;;;;1.40;1.10;;;22.50;48.50;;;;;;5125159;28;20411;-85
2021/04/23 06:56:11;;;;;;;1.50;1.33;;;22.40;48.40;;;;;;5125680;28;20414;-85
2021/04/23 06:58:46;;;;;;;1.57;1.30;;;22.50;48.80;;;;;;5126650;28;20775;-84
2021/04/23 07:01:16;;;;;;;1.97;1.50;;;22.50;48.30;;;;;;5125014;28;20497;-85
2021/04/23 07:03:46;;;;;;;2.50;1.40;;;22.50;48.30;;;;;;5127785;28;20497;-85
2021/04/23 07:06:15;;;;;;;2.10;1.50;;;22.50;48.10;;;;;;5126580;28;20414;-85
2021/04/23 07:08:41;;;;;;;3.70;1.43;;;22.40;48.30;;;;;;5126937;28;20414;-85
2021/04/23 07:11:16;;;;;;;1.43;1.10;;;22.60;48.10;;;;;;5128317;28;20402;-85
2021/04/23 07:13:45;;;;;;;2.10;1.47;;;22.70;48.40;;;;;;5127122;28;20490;-85
2021/04/23 07:16:13;;;;;;;2.03;1.53;;;22.70;48.10;;;;;;5126793;28;20406;-85
2021/04/23 07:18:39;;;;;;;2.30;1.40;;;22.50;48.10;;;;;;5126892;28;20498;-85
2021/04/23 07:21:08;;;;;;;2.60;1.20;;;22.70;48.10;;;;;;5126278;27;20436;-85
2021/04/23 07:23:36;;;;;;;1.27;1.10;;;22.80;48.10;;;;;;5123904;28;20438;-83
2021/04/23 07:26:05;;;;;;;2.43;1.50;;;22.80;48.30;;;;;;5122259;28;20510;-83
2021/04/23 07:28:39;;;;;;;1.83;1.17;;;22.80;48.20;;;;;;5126097;28;20406;-82
2021/04/23 07:31:06;;;;;;;1.63;1.27;;;22.80;48.10;;;;;;5128929;28;20387;-85
2021/04/23 07:33:33;;;;;;;2.23;1.33;;;22.80;48.10;;;;;;5130642;28;20422;-85
2021/04/23 07:36:03;;;;;;;2.67;1.50;;;22.80;48.10;;;;;;5130809;28;20924;-85
2021/04/23 07:38:30;;;;;;;1.77;1.20;;;22.90;48.20;;;;;;5129585;28;20419;-89
2021/04/23 07:40:57;;;;;;;1.60;1.20;;;22.90;48.30;;;;;;5126658;28;20427;-87
2021/04/23 07:43:23;;;;;;;1.80;1.43;;;22.90;48.20;;;;;;5127087;28;20487;-89
2021/04/23 07:45:49;;;;;;;1.43;1.23;;;22.90;48.20;;;;;;5126897;28;20457;-88
2021/04/23 07:48:15;;;;;;;1.97;1.20;;;22.90;48.20;;;;;;5127863;28;20411;-88
2021/04/23 07:50:48;;;;;;;2.60;1.30;;;22.90;48.40;;;;;;5127644;28;20410;-89
2021/04/23 07:53:29;;;;;;;3.57;1.63;;;22.90;48.40;;;;;;5127403;28;20409;-88
2021/04/23 07:55:57;;;;;;;1.40;1.20;;;22.90;48.30;;;;;;5125228;28;20409;-90
2021/04/23 07:58:29;;;;;;;1.77;1.27;;;22.90;48.20;;;;;;5125958;28;20450;-89
2021/04/23 08:15:24;;;;;;;2.40;1.27;;;23.00;48.30;;;;;;5005207;28;20416;-83
2021/04/23 08:28:42;;;;;;;3.27;1.23;;;23.00;48.40;;;;;;4987737;28;20793;-84
2021/04/23 08:31:09;;;;;;;1.47;1.20;;;23.00;48.50;;;;;;4987666;28;20447;-84
2021/04/23 08:33:38;;;;;;;2.00;1.63;;;23.00;48.70;;;;;;4986159;28;20413;-84
2021/04/23 08:36:07;;;;;;;1.53;1.30;;;23.00;48.50;;;;;;4969741;28;20456;-83
2021/04/23 08:38:56;;;;;;;3.90;1.53;;;23.00;48.50;;;;;;4985502;28;21007;-85
2021/04/23 08:41:23;;;;;;;2.07;1.40;;;23.10;48.70;;;;;;4987217;28;20425;-83
2021/04/23 08:43:49;;;;;;;2.63;1.80;;;23.00;48.40;;;;;;4970881;28;20439;-84
2021/04/23 08:46:16;;;;;;;2.20;1.37;;;23.10;48.50;;;;;;4970508;28;20421;-83
2021/04/23 08:48:47;;;;;;;2.20;1.50;;;23.10;48.40;;;;;;4971245;28;20425;-83
2021/04/23 08:51:14;;;;;;;1.73;1.20;;;23.10;48.40;;;;;;4987358;28;20935;-84
2021/04/23 08:53:41;;;;;;;1.60;1.50;;;23.10;48.50;;;;;;4970541;28;20417;-84
2021/04/23 08:56:10;;;;;;;2.07;1.33;;;23.00;48.20;;;;;;4985844;28;20420;-83
2021/04/23 08:58:38;;;;;;;2.23;1.30;;;23.00;48.40;;;;;;5007027;28;20510;-84
2021/04/23 09:01:06;;;;;;;3.50;1.10;;;23.00;48.20;;;;;;5008853;28;20458;-83
2021/04/23 09:03:32;;;;;;;2.03;1.47;;;23.10;48.30;;;;;;5024639;28;20446;-83
2021/04/23 09:06:11;;;;;;;1.90;1.30;;;23.10;48.40;;;;;;5106386;28;20964;-83
2021/04/23 09:08:57;;;;;;;2.20;1.10;;;23.10;48.20;;;;;;5107254;28;20882;-83
2021/04/23 09:11:32;;;;;;;4.30;1.53;;;23.10;48.20;;;;;;5105916;28;20411;-83
2021/04/23 09:14:01;;;;;;;1.93;1.40;;;23.10;48.20;;;;;;5107041;28;20394;-83
2021/04/23 09:17:03;;;;;;;2.27;1.50;;;23.10;48.20;;;;;;5104959;28;20410;-83
2021/04/23 09:19:36;;;;;;;2.93;1.50;;;23.10;48.30;;;;;;5073968;28;20487;-83
2021/04/23 09:22:21;;;;;;;2.70;1.40;;;23.10;48.30;;;;;;5106998;28;20487;-84
2021/04/23 09:25:13;;;;;;;3.00;1.40;;;23.10;48.10;;;;;;5104695;28;20495;-84
2021/04/23 09:27:49;;;;;;;3.03;1.50;;;23.10;48.20;;;;;;5104278;28;20408;-84
2021/04/23 09:30:15;;;;;;;5.37;1.40;;;23.10;48.20;;;;;;5104556;28;20408;-84
2021/04/23 09:32:44;;;;;;;3.40;1.50;;;22.90;48.10;;;;;;5103399;28;20431;-83
2021/04/23 09:35:16;;;;;;;3.33;1.50;;;23.10;48.30;;;;;;5103752;28;20415;-84
2021/04/23 09:37:59;;;;;;;2.27;1.50;;;23.20;48.40;;;;;;5103448;28;20412;-84
2021/04/23 09:40:31;;;;;;;3.30;1.67;;;23.20;48.30;;;;;;5103767;28;20475;-84
2021/04/23 09:43:05;;;;;;;2.27;1.43;;;23.20;48.40;;;;;;5104402;28;20814;-85
2021/04/23 09:45:34;;;;;;;2.70;1.63;;;23.20;48.30;;;;;;5103174;28;20463;-84
2021/04/23 09:48:08;;;;;;;3.10;1.27;;;23.20;48.30;;;;;;5103922;28;20842;-84
2021/04/23 09:50:38;;;;;;;1.60;1.20;;;23.00;48.20;;;;;;5104580;28;20414;-84
2021/04/23 09:53:07;;;;;;;1.50;1.27;;;23.20;48.40;;;;;;5104030;28;20407;-84
2021/04/23 09:55:36;;;;;;;1.97;1.40;;;23.20;48.30;;;;;;5103160;28;20500;-85
2021/04/23 09:58:20;;;;;;;1.53;1.40;;;23.10;48.30;;;;;;5104526;28;20404;-84
2021/04/23 10:01:04;;;;;;;1.87;1.20;;;23.20;48.20;;;;;;5104596;28;20866;-84
2021/04/23 10:03:33;;;;;;;6.60;1.37;;;23.10;48.20;;;;;;5102763;28;20429;-84
2021/04/23 10:06:30;;;;;;;1.80;1.40;;;23.20;48.20;;;;;;5105081;28;20451;-83
2021/04/23 10:09:07;;;;;;;2.10;1.30;;;23.30;48.30;;;;;;5104537;28;20464;-84
2021/04/23 10:11:42;;;;;;;2.13;1.23;;;23.20;48.30;;;;;;5103226;28;20407;-85
2021/04/23 10:14:10;;;;;;;4.90;1.43;;;23.20;48.40;;;;;;5103215;28;20411;-84
2021/04/23 10:16:41;;;;;;;2.17;1.43;;;23.20;48.40;;;;;;5103030;28;20419;-83
2021/04/23 10:19:09;;;;;;;2.20;1.20;;;23.30;48.40;;;;;;5106434;28;20404;-83
2021/04/23 10:21:35;;;;;;;2.80;1.30;;;23.20;48.50;;;;;;5104698;28;20420;-83
2021/04/23 10:24:06;;;;;;;1.30;1.20;;;23.20;48.30;;;;;;5106525;28;20475;-83
2021/04/23 10:26:36;;;;;;;2.33;1.40;;;23.20;48.30;;;;;;5105539;28;20419;-83
2021/04/23 10:29:06;;;;;;;3.13;1.40;;;23.20;48.30;;;;;;5105155;28;20418;-83
2021/04/23 10:31:37;;;;;;;2.10;1.23;;;23.20;48.20;;;;;;5105771;28;20428;-83
2021/04/23 10:34:07;;;;;;;1.97;1.27;;;23.30;48.30;;;;;;5107529;28;20460;-83
2021/04/23 10:36:37;;;;;;;3.03;1.50;;;23.20;48.20;;;;;;5106743;28;20411;-83
2021/04/23 10:39:06;;;;;;;5.73;1.70;;;23.20;48.30;;;;;;5106540;28;20408;-82
2021/04/23 10:41:40;;;;;;;3.23;2.13;;;23.20;48.30;;;;;;5106847;28;20548;-83
2021/04/23 10:44:07;;;;;;;10.00;3.30;;;23.20;48.30;;;;;;5106804;28;20473;-82
2021/04/23 10:46:51;;;;;;;10.70;4.60;;;23.20;48.40;;;;;;5107152;28;20403;-84
2021/04/23 10:49:19;;;;;;;11.00;5.40;;;23.30;48.20;;;;;;5107697;28;20415;-82
2021/04/23 10:51:45;;;;;;;10.03;5.37;;;23.20;48.60;;;;;;5107961;28;20411;-81
2021/04/23 10:54:20;;;;;;;12.47;8.27;;;23.20;48.60;;;;;;5107018;28;20435;-83
2021/04/23 10:56:55;;;;;;;12.90;6.53;;;23.20;48.30;;;;;;5106944;28;20408;-85
2021/04/23 10:59:24;;;;;;;12.53;6.63;;;23.20;48.40;;;;;;5107804;28;20436;-83
2021/04/23 11:01:52;;;;;;;14.03;7.00;;;23.20;48.20;;;;;;5107325;28;20415;-83
2021/04/23 11:04:21;;;;;;;16.87;8.40;;;23.20;48.30;;;;;;5108145;28;20459;-83
2021/04/23 11:06:54;;;;;;;18.27;9.70;;;23.20;48.30;;;;;;5110253;28;20403;-82
2021/04/23 11:09:29;;;;;;;19.10;11.57;;;23.10;48.20;;;;;;5112473;28;20989;-83
2021/04/23 11:12:07;;;;;;;22.23;13.07;;;23.10;48.30;;;;;;5111300;28;20422;-83
2021/04/23 11:14:36;;;;;;;29.50;14.90;;;23.10;48.50;;;;;;5110765;28;20419;-82
2021/04/23 11:17:40;;;;;;;25.93;14.33;;;23.10;48.20;;;;;;5112324;28;20414;-83
2021/04/23 11:20:35;;;;;;;21.97;14.77;;;23.00;48.10;;;;;;5050175;28;20440;-82
2021/04/23 11:23:11;;;;;;;30.17;17.87;;;23.00;47.90;;;;;;5049628;28;20450;-81
2021/04/23 11:26:17;;;;;;;28.93;16.00;;;23.10;47.80;;;;;;5032776;28;20461;-85
2021/04/23 12:03:47;;;;;;;16.57;10.63;;;22.60;47.00;;;;;;4872961;29;20482;-82
2021/04/23 12:06:53;;;;;;;17.17;10.20;;;22.60;47.00;;;;;;4855350;29;20481;-82
2021/04/23 12:09:32;;;;;;;18.90;9.63;;;22.60;47.20;;;;;;4881740;29;20954;-83
2021/04/23 12:12:10;;;;;;;19.77;8.97;;;22.60;47.20;;;;;;4902852;29;20445;-83
2021/04/23 12:14:48;;;;;;;17.70;8.83;;;22.60;47.10;;;;;;4908029;29;20574;-83
2021/04/23 12:17:17;;;;;;;14.70;9.40;;;22.60;47.10;;;;;;4927507;29;20415;-83
2021/04/23 12:19:56;;;;;;;16.80;9.00;;;22.60;47.20;;;;;;4949951;28;20456;-83
2021/04/23 12:22:26;;;;;;;18.20;9.67;;;22.60;47.10;;;;;;4980135;28;20425;-83
2021/04/23 12:25:15;;;;;;;15.00;8.17;;;22.60;47.20;;;;;;4982713;28;20536;-83
2021/04/23 12:31:40;;;;;;;14.30;8.47;;;22.60;47.20;;;;;;5107711;28;20395;-84
2021/04/23 12:34:16;;;;;;;11.13;7.47;;;22.60;47.20;;;;;;5105498;28;20490;-83
2021/04/23 13:58:58;;;;;;;8.67;5.40;;;22.40;47.60;;;;;;4910602;29;20432;-83
2021/04/23 14:01:36;;;;;;;7.53;5.13;;;22.50;47.70;;;;;;4893858;29;20437;-82
2021/04/23 14:04:11;;;;;;;7.40;5.10;;;22.40;47.60;;;;;;4895066;29;20425;-82
2021/04/23 14:06:49;;;;;;;8.40;4.80;;;22.50;47.70;;;;;;4895254;29;20421;-83
2021/04/23 14:09:19;;;;;;;5.67;4.10;;;22.50;47.70;;;;;;4894665;29;20456;-82
2021/04/23 14:11:55;;;;;;;8.27;4.97;;;22.50;47.60;;;;;;4894767;29;20425;-82
2021/04/23 14:14:32;;;;;;;8.30;5.47;;;22.50;47.60;;;;;;4894026;29;20424;-82
2021/04/23 14:17:03;;;;;;;8.87;6.13;;;22.50;47.50;;;;;;4911894;29;20500;-82
2021/04/23 15:25:21;;;;;;;8.53;5.47;;;22.40;47.80;;;;;;4934759;29;20473;-84
2021/04/23 15:34:41;;;;;;;5.97;4.67;;;22.40;47.80;;;;;;4910293;29;20460;-83
2021/04/23 15:37:15;;;;;;;9.50;4.67;;;22.40;47.90;;;;;;4915260;29;20431;-86
2021/04/23 16:07:47;;;;;;;5.10;4.50;;;22.40;47.90;;;;;;4930884;29;20558;-87
2021/04/23 16:10:22;;;;;;;5.70;4.00;;;22.40;47.90;;;;;;4933362;29;20419;-85
2021/04/23 16:13:06;;;;;;;5.20;3.50;;;22.50;48.10;;;;;;4949917;29;20491;-83
2021/04/23 16:18:57;;;;;;;5.33;3.73;;;22.40;47.90;;;;;;4919637;29;20391;-83
2021/04/23 16:21:24;;;;;;;4.77;3.73;;;22.40;47.80;;;;;;4956388;29;20522;-83
2021/04/23 16:23:53;;;;;;;4.23;3.47;;;22.40;47.80;;;;;;4941129;29;20418;-83
2021/04/23 16:26:29;;;;;;;6.87;3.73;;;22.40;47.80;;;;;;4939449;29;20982;-83
2021/04/23 17:58:10;;;;;;;3.30;2.30;;;22.20;47.40;;;;;;4978943;28;20481;-85
2021/04/23 18:00:45;;;;;;;4.13;2.40;;;22.20;47.40;;;;;;4990169;28;20434;-85
2021/04/23 18:03:17;;;;;;;4.03;2.63;;;22.20;47.40;;;;;;5018706;28;20180;-85
2021/04/23 18:05:54;;;;;;;;;;;;;;;;;;;;;
2021/04/23 18:08:20;;;;;;;4.30;3.27;;;22.20;47.40;;;;;;5043928;28;20460;-84
2021/04/23 18:10:46;;;;;;;3.07;2.77;;;22.30;47.50;;;;;;5034594;28;20422;-84
2021/04/23 18:13:13;;;;;;;6.93;4.10;;;22.30;47.50;;;;;;5033384;28;20180;-83
2021/04/23 18:15:42;;;;;;;5.00;2.80;;;22.30;47.50;;;;;;5051377;28;20422;-83
2021/04/23 18:18:10;;;;;;;5.70;3.30;;;22.30;47.50;;;;;;5050422;28;20437;-82
2021/04/23 18:20:36;;;;;;;3.90;2.53;;;22.30;47.50;;;;;;5033885;28;20426;-84
2021/04/23 18:23:02;;;;;;;3.73;2.50;;;22.30;47.50;;;;;;5055837;28;20429;-84
2021/04/23 18:25:28;;;;;;;3.20;2.83;;;22.30;47.50;;;;;;5088846;28;20273;-85
2021/04/23 18:38:43;;;;;;;3.70;2.63;;;22.30;47.60;;;;;;5109065;27;21045;-84
2021/04/23 18:41:17;;;;;;;2.87;2.57;;;23.20;46.40;;;;;;5085454;28;20431;-85
2021/04/23 18:43:45;;;;;;;3.87;2.37;;;23.00;46.70;;;;;;5061985;28;20438;-83
2021/04/23 18:50:32;;;;;;;5.30;2.27;;;22.70;46.90;;;;;;5061460;28;20517;-86
2021/04/23 18:59:59;;;;;;;3.50;2.77;;;22.40;47.40;;;;;;5006553;28;20462;-84
2021/04/23 19:02:47;;;;;;;4.40;2.70;;;22.30;47.50;;;;;;4989208;28;20416;-85
2021/04/23 19:12:00;;;;;;;4.10;1.90;;;22.30;47.60;;;;;;4967865;29;20418;-85
2021/04/23 19:14:26;;;;;;;3.23;2.03;;;22.20;47.60;;;;;;4966220;29;20433;-84
2021/04/23 19:20:29;;;;;;;4.77;2.77;;;22.30;47.70;;;;;;4967346;29;20197;-85
2021/04/23 19:30:29;;;;;;;2.80;1.80;;;22.20;47.80;;;;;;4949038;29;20402;-84
2021/04/23 19:33:49;;;;;;;;;;;;;;;;;;;;;
2021/04/23 19:37:16;;;;;;;3.27;2.10;;;22.20;47.90;;;;;;4929217;29;20476;-84
2021/04/23 19:39:42;;;;;;;2.70;2.23;;;22.10;47.90;;;;;;4933975;29;20863;-85
2021/04/23 19:42:11;;;;;;;2.47;2.17;;;22.10;47.90;;;;;;4954685;29;20430;-85
2021/04/23 19:44:37;;;;;;;2.80;2.07;;;22.10;47.90;;;;;;4972545;28;20195;-84
2021/04/23 19:47:04;;;;;;;3.17;2.33;;;22.10;47.90;;;;;;5029013;28;20459;-85
2021/04/23 19:49:29;;;;;;;2.60;2.20;;;22.10;47.90;;;;;;5046727;28;20191;-84
2021/04/23 19:51:55;;;;;;;3.67;2.70;;;22.10;47.90;;;;;;5012791;28;20923;-85
2021/04/23 20:28:11;;;;;;;2.73;2.50;;;22.10;48.00;;;;;;5069951;28;20444;-81
2021/04/23 20:30:48;;;;;;;3.00;2.30;;;22.10;48.10;;;;;;5072898;28;20425;-82
2021/04/23 20:33:16;;;;;;;2.50;1.90;;;22.10;48.10;;;;;;5106996;28;20508;-82
2021/04/23 20:35:42;;;;;;;2.23;1.77;;;22.10;48.10;;;;;;5073318;28;20500;-83